createdAt,value
2019-02-02T00:00:25.855Z,88.68
2019-02-02T00:01:35.320Z,88.56
2019-02-02T00:02:39.638Z,88.94
2019-02-02T00:03:43.905Z,89.14
2019-02-02T00:04:48.131Z,89.09
2019-02-02T00:05:52.453Z,89.14
2019-02-02T00:06:56.776Z,89.79
2019-02-02T00:08:01.085Z,89.51
2019-02-02T00:09:07.905Z,89.65
2019-02-02T00:10:12.208Z,89.79
2019-02-02T00:11:16.481Z,89.94
2019-02-02T00:12:20.749Z,89.87
2019-02-02T00:13:25.076Z,89.80
2019-02-02T00:14:29.386Z,89.46
2019-02-02T00:15:33.687Z,90.07
2019-02-02T00:16:38.058Z,90.29
2019-02-02T00:17:42.438Z,90.17
2019-02-02T00:18:46.688Z,89.63
2019-02-02T00:19:51.079Z,89.26
2019-02-02T00:20:55.202Z,89.29
2019-02-02T00:21:59.527Z,89.91
2019-02-02T00:23:03.693Z,89.87
2019-02-02T00:24:14.448Z,89.97
2019-02-02T00:25:18.811Z,90.32
2019-02-02T00:26:23.127Z,90.02
2019-02-02T00:27:27.322Z,89.97
2019-02-02T00:28:31.738Z,90.15
2019-02-02T00:29:36.045Z,90.18
2019-02-02T00:30:40.317Z,90.12
2019-02-02T00:31:44.663Z,90.29
2019-02-02T00:32:48.967Z,90.16
2019-02-02T00:33:53.336Z,89.82
2019-02-02T00:34:57.654Z,89.73
2019-02-02T00:36:02.139Z,90.01
2019-02-02T00:37:06.476Z,89.61
2019-02-02T00:38:10.713Z,90.15
2019-02-02T00:39:15.103Z,90.00
2019-02-02T00:40:19.303Z,90.18
2019-02-02T00:41:23.634Z,90.04
2019-02-02T00:42:27.928Z,89.96
2019-02-02T00:43:32.205Z,89.94
2019-02-02T00:44:36.711Z,90.12
2019-02-02T00:45:41.065Z,89.92
2019-02-02T00:46:45.437Z,89.95
2019-02-02T00:47:49.996Z,90.19
2019-02-02T00:48:54.258Z,89.97
2019-02-02T00:49:58.700Z,90.24
2019-02-02T00:51:02.946Z,89.96
2019-02-02T00:52:07.294Z,89.78
2019-02-02T00:53:11.635Z,90.02
2019-02-02T00:54:15.907Z,90.34
2019-02-02T00:55:20.403Z,90.23
2019-02-02T00:56:24.634Z,90.08
2019-02-02T00:57:28.982Z,90.11
2019-02-02T00:58:33.267Z,90.35
2019-02-02T00:59:37.578Z,90.05
2019-02-02T01:00:41.750Z,90.19
2019-02-02T01:01:46.120Z,90.24
2019-02-02T01:02:50.466Z,90.56
2019-02-02T01:03:54.676Z,90.04
2019-02-02T01:04:59.024Z,90.25
2019-02-02T01:06:04.955Z,90.38
2019-02-02T01:07:07.710Z,90.16
2019-02-02T01:08:12.052Z,90.21
2019-02-02T01:09:22.396Z,90.02
2019-02-02T01:10:29.149Z,90.11
2019-02-02T01:11:33.416Z,90.16
2019-02-02T01:12:37.659Z,90.13
2019-02-02T01:13:41.983Z,90.14
2019-02-02T01:14:46.265Z,89.92
2019-02-02T01:15:50.597Z,90.22
2019-02-02T01:16:54.955Z,90.07
2019-02-02T01:17:59.178Z,89.35
2019-02-02T01:19:03.535Z,89.70
2019-02-02T01:20:08.123Z,89.82
2019-02-02T01:21:12.348Z,89.51
2019-02-02T01:22:16.682Z,88.80
2019-02-02T01:23:21.037Z,89.96
2019-02-02T01:24:25.319Z,90.03
2019-02-02T01:25:29.648Z,90.29
2019-02-02T01:26:33.999Z,90.20
2019-02-02T01:27:38.406Z,90.29
2019-02-02T01:28:42.687Z,89.47
2019-02-02T01:29:47.010Z,90.10
2019-02-02T01:30:51.300Z,90.45
2019-02-02T01:31:55.650Z,89.87
2019-02-02T01:32:59.882Z,89.84
2019-02-02T01:34:04.329Z,89.41
2019-02-02T01:35:09.831Z,89.24
2019-02-02T01:36:14.090Z,89.76
2019-02-02T01:37:18.380Z,89.63
2019-02-02T01:38:22.763Z,89.98
2019-02-02T01:39:26.891Z,90.09
2019-02-02T01:40:31.238Z,89.69
2019-02-02T01:41:35.452Z,89.65
2019-02-02T01:42:39.668Z,89.62
2019-02-02T01:43:43.830Z,89.33
2019-02-02T01:44:48.117Z,89.52
2019-02-02T01:45:52.355Z,89.47
2019-02-02T01:46:56.675Z,89.47
2019-02-02T01:48:00.975Z,89.60
2019-02-02T01:49:05.269Z,89.35
2019-02-02T01:50:11.755Z,89.52
2019-02-02T01:51:16.070Z,89.38
2019-02-02T01:52:20.226Z,89.56
2019-02-02T01:53:24.539Z,89.99
2019-02-02T01:54:28.785Z,88.94
2019-02-02T01:55:33.063Z,87.78
2019-02-02T01:56:37.381Z,87.65
2019-02-02T01:57:41.569Z,87.95
2019-02-02T01:58:45.798Z,88.55
2019-02-02T01:59:50.215Z,87.28
2019-02-02T02:00:54.523Z,87.13
2019-02-02T02:01:58.790Z,87.02
2019-02-02T02:03:03.114Z,87.48
2019-02-02T02:04:07.307Z,86.39
2019-02-02T02:05:11.671Z,86.52
2019-02-02T02:06:15.968Z,85.81
2019-02-02T02:07:20.222Z,86.86
2019-02-02T02:08:24.571Z,85.74
2019-02-02T02:09:28.803Z,86.66
2019-02-02T02:10:33.110Z,85.82
2019-02-02T02:11:37.360Z,85.55
2019-02-02T02:12:41.657Z,85.48
2019-02-02T02:13:46.074Z,85.50
2019-02-02T02:14:50.310Z,85.64
2019-02-02T02:15:54.683Z,86.55
2019-02-02T02:16:58.991Z,87.04
2019-02-02T02:18:03.205Z,87.85
2019-02-02T02:19:07.621Z,87.69
2019-02-02T02:20:12.430Z,88.02
2019-02-02T02:21:16.700Z,88.15
2019-02-02T02:22:20.956Z,87.55
2019-02-02T02:23:25.031Z,88.08
2019-02-02T02:24:29.272Z,88.19
2019-02-02T02:25:33.698Z,87.73
2019-02-02T02:26:37.903Z,88.42
2019-02-02T02:27:42.191Z,88.10
2019-02-02T02:28:46.403Z,88.50
2019-02-02T02:29:50.748Z,88.45
2019-02-02T02:30:54.931Z,88.67
2019-02-02T02:31:59.268Z,88.54
2019-02-02T02:33:03.474Z,88.94
2019-02-02T02:34:07.753Z,88.99
2019-02-02T02:35:12.010Z,88.26
2019-02-02T02:36:16.230Z,87.89
2019-02-02T02:37:20.554Z,88.78
2019-02-02T02:38:24.797Z,87.97
2019-02-02T02:39:29.060Z,88.80
2019-02-02T02:40:33.386Z,88.04
2019-02-02T02:41:37.683Z,88.44
2019-02-02T02:42:42.064Z,87.17
2019-02-02T02:43:46.344Z,87.60
2019-02-02T02:44:50.649Z,87.67
2019-02-02T02:45:54.914Z,87.85
2019-02-02T02:46:59.216Z,87.41
2019-02-02T02:48:03.626Z,86.83
2019-02-02T02:49:07.927Z,87.37
2019-02-02T02:50:14.190Z,87.40
2019-02-02T02:51:18.301Z,86.82
2019-02-02T02:52:22.645Z,87.09
2019-02-02T02:53:26.853Z,87.14
2019-02-02T02:54:30.909Z,87.66
2019-02-02T02:55:35.137Z,87.10
2019-02-02T02:56:39.367Z,86.51
2019-02-02T02:57:43.674Z,86.72
2019-02-02T02:58:48.094Z,85.99
2019-02-02T02:59:52.389Z,87.23
2019-02-02T03:00:56.662Z,86.70
2019-02-02T03:02:01.000Z,87.43
2019-02-02T03:03:05.280Z,86.82
2019-02-02T03:04:09.641Z,85.80
2019-02-02T03:05:14.046Z,85.07
2019-02-02T03:06:18.319Z,84.82
2019-02-02T03:07:22.650Z,85.55
2019-02-02T03:08:27.018Z,85.14
2019-02-02T03:09:31.369Z,84.80
2019-02-02T03:10:35.666Z,84.14
2019-02-02T03:11:39.993Z,84.17
2019-02-02T03:12:44.271Z,86.09
2019-02-02T03:13:48.561Z,86.22
2019-02-02T03:14:52.945Z,86.65
2019-02-02T03:15:57.212Z,84.61
2019-02-02T03:17:01.388Z,85.32
2019-02-02T03:18:05.723Z,85.68
2019-02-02T03:19:10.072Z,84.55
2019-02-02T03:20:14.804Z,84.62
2019-02-02T03:21:19.123Z,85.19
2019-02-02T03:22:23.377Z,85.63
2019-02-02T03:23:27.595Z,84.58
2019-02-02T03:24:31.783Z,86.25
2019-02-02T03:25:36.092Z,86.23
2019-02-02T03:26:40.406Z,86.28
2019-02-02T03:27:44.672Z,85.71
2019-02-02T03:28:53.531Z,85.41
2019-02-02T03:29:53.304Z,85.12
2019-02-02T03:30:57.686Z,85.35
2019-02-02T03:32:02.181Z,85.75
2019-02-02T03:33:06.360Z,85.51
2019-02-02T03:34:10.517Z,86.45
2019-02-02T03:35:15.848Z,84.83
2019-02-02T03:36:20.218Z,85.73
2019-02-02T03:37:24.435Z,85.82
2019-02-02T03:38:28.680Z,84.95
2019-02-02T03:39:32.875Z,86.03
2019-02-02T03:40:37.228Z,85.52
2019-02-02T03:41:41.567Z,84.86
2019-02-02T03:42:45.744Z,84.41
2019-02-02T03:43:50.018Z,84.73
2019-02-02T03:44:54.114Z,84.10
2019-02-02T03:45:58.316Z,83.96
2019-02-02T03:47:02.647Z,83.44
2019-02-02T03:48:06.969Z,84.90
2019-02-02T03:49:11.279Z,85.82
2019-02-02T03:50:15.598Z,85.81
2019-02-02T03:51:19.806Z,85.21
2019-02-02T03:52:24.123Z,84.66
2019-02-02T03:53:28.310Z,85.36
2019-02-02T03:54:32.624Z,86.29
2019-02-02T03:55:36.895Z,86.12
2019-02-02T03:56:41.124Z,86.11
2019-02-02T03:57:45.301Z,86.49
2019-02-02T03:58:49.646Z,86.03
2019-02-02T03:59:53.920Z,86.26
2019-02-02T04:00:58.228Z,87.09
2019-02-02T04:02:02.393Z,86.71
2019-02-02T04:03:06.589Z,87.25
2019-02-02T04:04:10.789Z,86.97
2019-02-02T04:05:18.022Z,87.20
2019-02-02T04:06:22.315Z,86.33
2019-02-02T04:07:26.667Z,87.38
2019-02-02T04:08:30.999Z,86.62
2019-02-02T04:09:35.258Z,87.42
2019-02-02T04:10:39.549Z,86.97
2019-02-02T04:11:43.766Z,86.17
2019-02-02T04:12:48.106Z,86.91
2019-02-02T04:13:52.415Z,87.25
2019-02-02T04:14:56.636Z,87.59
2019-02-02T04:16:00.912Z,87.65
2019-02-02T04:17:05.231Z,87.33
2019-02-02T04:18:09.404Z,87.90
2019-02-02T04:19:13.666Z,87.84
2019-02-02T04:20:19.394Z,88.02
2019-02-02T04:21:23.665Z,87.64
2019-02-02T04:22:28.017Z,87.22
2019-02-02T04:23:32.192Z,87.33
2019-02-02T04:24:36.452Z,86.63
2019-02-02T04:25:40.681Z,86.89
2019-02-02T04:26:45.036Z,87.33
2019-02-02T04:27:49.388Z,87.30
2019-02-02T04:28:53.732Z,86.80
2019-02-02T04:29:58.117Z,85.79
2019-02-02T04:31:02.330Z,85.56
2019-02-02T04:32:06.699Z,86.45
2019-02-02T04:33:10.787Z,87.10
2019-02-02T04:34:15.087Z,86.47
2019-02-02T04:35:19.254Z,85.77
2019-02-02T04:36:23.636Z,85.61
2019-02-02T04:37:27.787Z,86.86
2019-02-02T04:38:32.108Z,86.25
2019-02-02T04:39:36.387Z,86.46
2019-02-02T04:40:40.750Z,86.29
2019-02-02T04:41:44.901Z,86.52
2019-02-02T04:42:49.144Z,86.75
2019-02-02T04:43:53.319Z,86.41
2019-02-02T04:44:57.695Z,86.10
2019-02-02T04:46:02.007Z,86.75
2019-02-02T04:47:06.244Z,86.71
2019-02-02T04:48:10.477Z,86.27
2019-02-02T04:49:14.703Z,86.53
2019-02-02T04:50:19.074Z,86.43
2019-02-02T04:51:23.417Z,86.19
2019-02-02T04:52:27.698Z,86.12
2019-02-02T04:53:32.060Z,86.69
2019-02-02T04:54:36.499Z,86.58
2019-02-02T04:55:40.755Z,86.55
2019-02-02T04:56:45.030Z,86.82
2019-02-02T04:57:49.338Z,86.79
2019-02-02T04:58:53.520Z,86.44
2019-02-02T04:59:57.810Z,86.48
2019-02-02T05:01:02.106Z,86.26
2019-02-02T05:02:06.420Z,85.91
2019-02-02T05:03:10.659Z,86.32
2019-02-02T05:04:14.972Z,86.04
2019-02-02T05:05:19.321Z,86.64
2019-02-02T05:06:23.580Z,86.62
2019-02-02T05:07:27.842Z,85.96
2019-02-02T05:08:32.096Z,86.49
2019-02-02T05:09:36.436Z,86.20
2019-02-02T05:10:40.617Z,86.42
2019-02-02T05:11:44.908Z,85.62
2019-02-02T05:12:49.295Z,86.06
2019-02-02T05:13:53.538Z,86.64
2019-02-02T05:14:57.812Z,86.87
2019-02-02T05:16:02.045Z,86.05
2019-02-02T05:17:06.410Z,86.39
2019-02-02T05:18:10.796Z,86.35
2019-02-02T05:19:15.112Z,86.37
2019-02-02T05:20:19.351Z,86.34
2019-02-02T05:21:23.681Z,85.21
2019-02-02T05:22:28.026Z,86.32
2019-02-02T05:23:32.361Z,86.08
2019-02-02T05:24:36.648Z,86.42
2019-02-02T05:25:40.957Z,86.71
2019-02-02T05:26:45.248Z,86.17
2019-02-02T05:27:49.575Z,86.54
2019-02-02T05:28:53.773Z,86.39
2019-02-02T05:29:58.086Z,86.87
2019-02-02T05:31:02.290Z,86.56
2019-02-02T05:32:06.592Z,86.67
2019-02-02T05:33:10.818Z,86.63
2019-02-02T05:34:15.116Z,86.27
2019-02-02T05:35:19.435Z,86.74
2019-02-02T05:36:23.691Z,86.31
2019-02-02T05:37:28.040Z,86.09
2019-02-02T05:38:32.327Z,86.90
2019-02-02T05:39:36.715Z,86.65
2019-02-02T05:40:40.971Z,85.59
2019-02-02T05:41:45.296Z,85.56
2019-02-02T05:42:49.619Z,86.71
2019-02-02T05:43:53.992Z,86.08
2019-02-02T05:44:58.204Z,86.05
2019-02-02T05:46:02.391Z,85.54
2019-02-02T05:47:06.721Z,85.47
2019-02-02T05:48:10.990Z,86.14
2019-02-02T05:49:15.334Z,85.72
2019-02-02T05:50:21.251Z,85.37
2019-02-02T05:51:25.575Z,85.81
2019-02-02T05:52:29.784Z,85.23
2019-02-02T05:53:34.048Z,84.73
2019-02-02T05:54:38.413Z,85.09
2019-02-02T05:55:42.698Z,85.13
2019-02-02T05:56:47.050Z,84.86
2019-02-02T05:57:51.348Z,85.39
2019-02-02T05:58:55.639Z,85.30
2019-02-02T05:59:59.706Z,85.11
2019-02-02T06:01:04.259Z,85.54
2019-02-02T06:02:08.459Z,85.30
2019-02-02T06:03:12.622Z,84.95
2019-02-02T06:04:17.012Z,85.43
2019-02-02T06:05:21.148Z,84.79
2019-02-02T06:06:25.453Z,84.97
2019-02-02T06:07:29.794Z,85.02
2019-02-02T06:08:34.186Z,85.13
2019-02-02T06:09:38.420Z,84.89
2019-02-02T06:10:42.694Z,84.85
2019-02-02T06:11:47.224Z,84.43
2019-02-02T06:12:51.389Z,84.50
2019-02-02T06:13:55.645Z,84.97
2019-02-02T06:14:59.820Z,85.22
2019-02-02T06:16:04.164Z,85.14
2019-02-02T06:17:08.396Z,84.64
2019-02-02T06:18:12.672Z,85.29
2019-02-02T06:19:16.837Z,85.15
2019-02-02T06:20:21.159Z,85.22
2019-02-02T06:21:25.396Z,85.20
2019-02-02T06:22:29.792Z,85.15
2019-02-02T06:23:34.127Z,84.56
2019-02-02T06:24:38.375Z,84.69
2019-02-02T06:25:42.727Z,84.96
2019-02-02T06:26:46.950Z,85.03
2019-02-02T06:27:51.287Z,84.98
2019-02-02T06:28:55.310Z,84.82
2019-02-02T06:30:04.321Z,85.18
2019-02-02T06:31:04.024Z,84.89
2019-02-02T06:32:11.891Z,85.01
2019-02-02T06:33:12.732Z,84.44
2019-02-02T06:34:17.083Z,84.54
2019-02-02T06:35:21.359Z,84.53
2019-02-02T06:36:25.666Z,83.85
2019-02-02T06:37:30.062Z,84.23
2019-02-02T06:38:34.381Z,83.68
2019-02-02T06:39:38.703Z,84.30
2019-02-02T06:40:43.182Z,84.31
2019-02-02T06:41:47.446Z,83.66
2019-02-02T06:42:51.826Z,84.07
2019-02-02T06:43:56.266Z,84.34
2019-02-02T06:45:00.435Z,84.40
2019-02-02T06:46:04.791Z,84.20
2019-02-02T06:47:08.956Z,84.01
2019-02-02T06:48:13.273Z,84.83
2019-02-02T06:49:17.639Z,84.53
2019-02-02T06:50:21.773Z,84.66
2019-02-02T06:51:26.115Z,84.52
2019-02-02T06:52:30.378Z,84.80
2019-02-02T06:53:34.739Z,84.91
2019-02-02T06:54:39.035Z,84.52
2019-02-02T06:55:43.358Z,84.74
2019-02-02T06:56:47.627Z,84.89
2019-02-02T06:57:51.979Z,84.88
2019-02-02T06:58:56.166Z,84.78
2019-02-02T07:00:00.400Z,85.17
2019-02-02T07:01:04.701Z,85.51
2019-02-02T07:02:08.950Z,85.42
2019-02-02T07:03:13.385Z,85.62
2019-02-02T07:04:17.749Z,86.07
2019-02-02T07:05:22.097Z,85.55
2019-02-02T07:06:26.438Z,84.98
2019-02-02T07:07:30.632Z,85.12
2019-02-02T07:08:34.857Z,84.83
2019-02-02T07:09:39.020Z,85.06
2019-02-02T07:10:43.383Z,85.45
2019-02-02T07:11:47.599Z,85.10
2019-02-02T07:12:52.001Z,85.19
2019-02-02T07:13:56.258Z,85.13
2019-02-02T07:15:00.634Z,84.99
2019-02-02T07:16:04.864Z,84.83
2019-02-02T07:17:09.188Z,85.27
2019-02-02T07:18:13.431Z,85.18
2019-02-02T07:19:17.823Z,85.62
2019-02-02T07:20:22.166Z,85.93
2019-02-02T07:21:26.474Z,85.93
2019-02-02T07:22:30.758Z,85.53
2019-02-02T07:23:35.011Z,85.81
2019-02-02T07:24:39.328Z,85.93
2019-02-02T07:25:43.672Z,86.45
2019-02-02T07:26:48.113Z,85.88
2019-02-02T07:27:52.390Z,86.29
2019-02-02T07:28:56.646Z,86.27
2019-02-02T07:30:00.807Z,86.14
2019-02-02T07:31:05.117Z,86.64
2019-02-02T07:32:09.411Z,86.23
2019-02-02T07:33:13.707Z,86.50
2019-02-02T07:34:17.931Z,86.34
2019-02-02T07:35:22.098Z,86.35
2019-02-02T07:36:26.322Z,86.49
2019-02-02T07:37:30.735Z,86.52
2019-02-02T07:38:35.085Z,86.83
2019-02-02T07:39:39.360Z,86.79
2019-02-02T07:40:43.722Z,86.84
2019-02-02T07:41:47.931Z,86.75
2019-02-02T07:42:52.291Z,86.91
2019-02-02T07:43:56.505Z,87.20
2019-02-02T07:45:00.811Z,87.40
2019-02-02T07:46:14.700Z,87.30
2019-02-02T07:47:09.408Z,87.03
2019-02-02T07:48:13.794Z,87.07
2019-02-02T07:49:18.124Z,87.04
2019-02-02T07:50:22.457Z,86.66
2019-02-02T07:51:26.723Z,87.39
2019-02-02T07:52:31.074Z,87.33
2019-02-02T07:53:35.414Z,87.40
2019-02-02T07:54:39.665Z,87.15
2019-02-02T07:55:43.975Z,87.20
2019-02-02T07:56:48.379Z,87.21
2019-02-02T07:57:52.726Z,86.95
2019-02-02T07:58:57.041Z,87.06
2019-02-02T08:00:01.337Z,86.88
2019-02-02T08:01:05.618Z,87.06
2019-02-02T08:02:09.847Z,87.10
2019-02-02T08:03:14.395Z,86.66
2019-02-02T08:04:18.708Z,87.36
2019-02-02T08:05:23.019Z,87.49
2019-02-02T08:06:27.355Z,87.30
2019-02-02T08:07:31.765Z,87.58
2019-02-02T08:08:36.082Z,87.25
2019-02-02T08:09:40.450Z,87.13
2019-02-02T08:10:44.679Z,87.33
2019-02-02T08:11:49.037Z,87.46
2019-02-02T08:12:53.330Z,87.08
2019-02-02T08:13:57.713Z,87.05
2019-02-02T08:15:02.113Z,87.04
2019-02-02T08:16:06.455Z,86.69
2019-02-02T08:17:10.746Z,87.08
2019-02-02T08:18:14.999Z,87.34
2019-02-02T08:19:19.242Z,86.69
2019-02-02T08:20:23.764Z,87.09
2019-02-02T08:21:28.119Z,86.69
2019-02-02T08:22:32.387Z,87.01
2019-02-02T08:23:36.728Z,86.92
2019-02-02T08:24:41.070Z,86.88
2019-02-02T08:25:45.553Z,86.98
2019-02-02T08:26:49.865Z,87.12
2019-02-02T08:27:54.078Z,86.92
2019-02-02T08:28:58.375Z,86.96
2019-02-02T08:30:02.773Z,87.20
2019-02-02T08:31:06.994Z,87.07
2019-02-02T08:32:11.308Z,87.28
2019-02-02T08:33:15.572Z,87.44
2019-02-02T08:34:19.830Z,87.57
2019-02-02T08:35:24.088Z,87.32
2019-02-02T08:36:28.447Z,87.56
2019-02-02T08:37:32.686Z,87.54
2019-02-02T08:38:37.134Z,87.44
2019-02-02T08:39:41.319Z,87.57
2019-02-02T08:40:45.733Z,87.31
2019-02-02T08:41:50.882Z,87.09
2019-02-02T08:42:54.458Z,87.06
2019-02-02T08:43:58.799Z,87.26
2019-02-02T08:45:02.963Z,87.46
2019-02-02T08:46:07.235Z,87.69
2019-02-02T08:47:11.609Z,87.50
2019-02-02T08:48:16.035Z,87.56
2019-02-02T08:49:20.300Z,87.49
2019-02-02T08:50:27.112Z,87.71
2019-02-02T08:51:31.319Z,87.33
2019-02-02T08:52:35.592Z,87.73
2019-02-02T08:53:39.690Z,87.74
2019-02-02T08:54:44.079Z,87.79
2019-02-02T08:55:51.367Z,87.83
2019-02-02T08:56:52.730Z,88.31
2019-02-02T08:57:56.910Z,87.84
2019-02-02T08:59:01.323Z,88.11
2019-02-02T09:00:06.861Z,87.82
2019-02-02T09:01:11.403Z,87.79
2019-02-02T09:02:15.750Z,88.11
2019-02-02T09:03:20.226Z,88.31
2019-02-02T09:04:24.715Z,88.71
2019-02-02T09:05:29.255Z,88.33
2019-02-02T09:06:39.175Z,88.68
2019-02-02T09:07:38.349Z,88.74
2019-02-02T09:08:42.253Z,89.01
2019-02-02T09:09:46.496Z,88.62
2019-02-02T09:10:50.558Z,88.55
2019-02-02T09:11:55.146Z,88.18
2019-02-02T09:12:59.480Z,88.18
2019-02-02T09:14:03.828Z,88.61
2019-02-02T09:15:09.995Z,88.00
2019-02-02T09:16:14.239Z,87.68
2019-02-02T09:17:18.804Z,87.63
2019-02-02T09:18:23.131Z,87.81
2019-02-02T09:19:27.422Z,88.58
2019-02-02T09:20:31.903Z,88.29
2019-02-02T09:21:36.089Z,87.73
2019-02-02T09:22:40.424Z,87.66
2019-02-02T09:23:44.776Z,88.04
2019-02-02T09:24:51.831Z,88.09
2019-02-02T09:25:53.875Z,88.22
2019-02-02T09:26:58.499Z,88.16
2019-02-02T09:28:02.941Z,88.46
2019-02-02T09:29:10.290Z,88.34
2019-02-02T09:30:18.353Z,88.52
2019-02-02T09:31:22.648Z,88.31
2019-02-02T09:32:27.323Z,88.23
2019-02-02T09:33:31.846Z,88.27
2019-02-02T09:34:36.217Z,88.69
2019-02-02T09:35:40.514Z,88.68
2019-02-02T09:36:44.898Z,88.79
2019-02-02T09:37:49.276Z,88.36
2019-02-02T09:38:53.461Z,88.46
2019-02-02T09:39:57.832Z,88.36
2019-02-02T09:41:02.126Z,88.64
2019-02-02T09:42:06.690Z,88.43
2019-02-02T09:43:11.881Z,88.26
2019-02-02T09:44:16.239Z,88.16
2019-02-02T09:45:21.109Z,88.72
2019-02-02T09:46:25.536Z,88.71
2019-02-02T09:47:30.232Z,88.61
2019-02-02T09:48:34.461Z,88.45
2019-02-02T09:49:39.040Z,88.87
2019-02-02T09:50:43.378Z,88.72
2019-02-02T09:51:47.728Z,89.04
2019-02-02T09:52:52.044Z,88.86
2019-02-02T09:53:56.317Z,89.13
2019-02-02T09:55:00.912Z,88.58
2019-02-02T09:56:05.478Z,88.84
2019-02-02T09:57:09.882Z,88.25
2019-02-02T09:58:14.477Z,88.44
2019-02-02T09:59:18.767Z,88.49
2019-02-02T10:00:25.162Z,88.38
2019-02-02T10:01:29.347Z,88.14
2019-02-02T10:02:33.660Z,88.25
2019-02-02T10:03:37.888Z,88.81
2019-02-02T10:04:42.042Z,88.61
2019-02-02T10:05:46.408Z,88.67
2019-02-02T10:06:50.680Z,88.30
2019-02-02T10:07:55.116Z,88.40
2019-02-02T10:08:59.576Z,88.27
2019-02-02T10:10:03.991Z,88.25
2019-02-02T10:11:08.301Z,88.89
2019-02-02T10:12:12.719Z,88.76
2019-02-02T10:13:17.335Z,88.52
2019-02-02T10:14:21.654Z,88.32
2019-02-02T10:15:25.901Z,88.70
2019-02-02T10:16:30.397Z,88.23
2019-02-02T10:17:34.590Z,88.57
2019-02-02T10:18:39.043Z,88.83
2019-02-02T10:19:43.571Z,88.65
2019-02-02T10:20:47.992Z,89.13
2019-02-02T10:21:52.550Z,88.73
2019-02-02T10:22:57.799Z,88.76
2019-02-02T10:24:02.124Z,88.81
2019-02-02T10:25:07.644Z,88.30
2019-02-02T10:26:12.218Z,88.58
2019-02-02T10:27:16.623Z,88.33
2019-02-02T10:28:21.056Z,88.46
2019-02-02T10:29:25.434Z,88.39
2019-02-02T10:30:31.873Z,88.74
2019-02-02T10:31:39.759Z,88.80
2019-02-02T10:32:40.704Z,88.41
2019-02-02T10:33:45.050Z,88.70
2019-02-02T10:34:49.320Z,88.90
2019-02-02T10:35:53.663Z,88.85
2019-02-02T10:36:57.736Z,89.00
2019-02-02T10:38:02.315Z,88.54
2019-02-02T10:39:08.632Z,88.88
2019-02-02T10:40:13.234Z,88.64
2019-02-02T10:41:17.436Z,88.72
2019-02-02T10:42:21.595Z,88.79
2019-02-02T10:43:25.924Z,88.80
2019-02-02T10:44:30.426Z,88.91
2019-02-02T10:45:34.908Z,88.46
2019-02-02T10:46:39.207Z,88.47
2019-02-02T10:47:43.473Z,88.68
2019-02-02T10:48:47.830Z,88.79
2019-02-02T10:49:52.085Z,88.59
2019-02-02T10:50:56.438Z,89.12
2019-02-02T10:52:00.869Z,88.96
2019-02-02T10:53:05.182Z,88.89
2019-02-02T10:54:09.483Z,88.67
2019-02-02T10:55:14.141Z,88.42
2019-02-02T10:56:18.453Z,88.55
2019-02-02T10:57:22.967Z,88.55
2019-02-02T10:58:26.877Z,88.73
2019-02-02T10:59:31.066Z,88.84
2019-02-02T11:00:36.710Z,88.59
2019-02-02T11:01:50.662Z,88.91
2019-02-02T11:02:44.850Z,88.35
2019-02-02T11:03:48.854Z,88.40
2019-02-02T11:04:53.546Z,88.68
2019-02-02T11:05:57.092Z,88.61
2019-02-02T11:07:01.011Z,88.83
2019-02-02T11:08:05.519Z,88.77
2019-02-02T11:09:10.263Z,88.52
2019-02-02T11:13:29.061Z,88.05
2019-02-02T11:14:33.008Z,88.57
2019-02-02T11:15:38.508Z,88.46
2019-02-02T11:16:42.470Z,88.38
2019-02-02T11:17:46.549Z,88.15
2019-02-02T11:18:50.486Z,87.93
2019-02-02T11:19:54.527Z,88.10
2019-02-02T11:20:58.658Z,88.23
2019-02-02T11:22:02.669Z,88.28
2019-02-02T11:23:07.199Z,88.58
2019-02-02T11:24:11.526Z,88.55
2019-02-02T11:25:15.543Z,88.54
2019-02-02T11:26:19.801Z,88.25
2019-02-02T11:27:24.258Z,88.59
2019-02-02T11:28:29.638Z,88.08
2019-02-02T11:29:33.783Z,88.86
2019-02-02T11:30:38.129Z,88.74
2019-02-02T11:31:42.421Z,88.49
2019-02-02T11:32:47.002Z,88.84
2019-02-02T11:33:51.204Z,88.31
2019-02-02T11:34:55.365Z,88.11
2019-02-02T11:35:59.697Z,88.08
2019-02-02T11:37:04.114Z,88.25
2019-02-02T11:38:08.440Z,88.24
2019-02-02T11:39:12.763Z,88.00
2019-02-02T11:40:21.661Z,88.16
2019-02-02T11:41:25.634Z,88.54
2019-02-02T11:42:29.759Z,88.37
2019-02-02T11:43:34.046Z,88.65
2019-02-02T11:44:37.989Z,88.29
2019-02-02T11:45:41.901Z,88.78
2019-02-02T11:46:45.931Z,88.05
2019-02-02T11:47:50.049Z,88.21
2019-02-02T11:48:54.181Z,87.80
2019-02-02T11:49:58.072Z,87.91
2019-02-02T11:51:02.087Z,88.28
2019-02-02T11:52:06.126Z,88.19
2019-02-02T11:53:10.193Z,88.35
2019-02-02T11:54:14.260Z,88.39
2019-02-02T11:55:18.982Z,88.33
2019-02-02T11:56:22.944Z,87.84
2019-02-02T11:57:27.131Z,88.04
2019-02-02T11:58:31.547Z,87.65
2019-02-02T11:59:35.758Z,88.09
2019-02-02T12:00:41.700Z,87.59
2019-02-02T12:01:45.811Z,87.94
2019-02-02T12:02:50.280Z,87.89
2019-02-02T12:03:54.648Z,87.75
2019-02-02T12:04:58.874Z,87.83
2019-02-02T12:06:04.124Z,87.66
2019-02-02T12:07:08.091Z,87.65
2019-02-02T12:08:12.028Z,88.01
2019-02-02T12:09:16.008Z,87.90
2019-02-02T12:10:21.308Z,87.71
2019-02-02T12:11:25.322Z,87.68
2019-02-02T12:12:29.378Z,87.71
2019-02-02T12:13:33.342Z,87.61
2019-02-02T12:14:37.418Z,87.65
2019-02-02T12:15:41.403Z,87.74
2019-02-02T12:16:45.355Z,86.96
2019-02-02T12:17:49.719Z,87.62
2019-02-02T12:18:53.900Z,87.07
2019-02-02T12:20:00.330Z,86.59
2019-02-02T12:21:04.356Z,86.40
2019-02-02T12:22:08.326Z,86.33
2019-02-02T12:23:12.594Z,86.16
2019-02-02T12:24:16.907Z,86.46
2019-02-02T12:25:21.501Z,86.39
2019-02-02T12:26:25.804Z,86.46
2019-02-02T12:27:30.026Z,86.66
2019-02-02T12:28:34.288Z,86.40
2019-02-02T12:29:38.246Z,86.95
2019-02-02T12:30:42.252Z,86.49
2019-02-02T12:31:46.185Z,86.51
2019-02-02T12:32:50.120Z,86.37
2019-02-02T12:33:54.044Z,85.70
2019-02-02T12:34:57.979Z,86.13
2019-02-02T12:36:02.420Z,85.80
2019-02-02T12:37:06.945Z,85.93
2019-02-02T12:38:11.273Z,85.90
2019-02-02T12:39:15.662Z,86.00
2019-02-02T12:40:20.260Z,86.05
2019-02-02T12:41:26.758Z,85.14
2019-02-02T12:42:31.267Z,85.36
2019-02-02T12:43:35.417Z,85.52
2019-02-02T12:44:39.758Z,84.46
2019-02-02T12:45:48.648Z,84.91
2019-02-02T12:46:52.896Z,85.49
2019-02-02T12:47:57.104Z,85.49
2019-02-02T12:49:01.515Z,85.38
2019-02-02T12:50:06.433Z,84.98
2019-02-02T12:51:10.611Z,84.84
2019-02-02T12:52:14.891Z,85.24
2019-02-02T12:53:19.335Z,85.19
2019-02-02T12:54:23.659Z,85.49
2019-02-02T12:55:27.879Z,84.80
2019-02-02T12:56:32.195Z,84.81
2019-02-02T12:57:36.491Z,85.31
2019-02-02T12:58:40.857Z,85.84
2019-02-02T12:59:45.211Z,85.45
2019-02-02T13:00:49.503Z,85.16
2019-02-02T13:01:53.798Z,85.44
2019-02-02T13:02:58.362Z,85.67
2019-02-02T13:04:05.490Z,85.51
2019-02-02T13:05:07.516Z,85.71
2019-02-02T13:06:11.883Z,86.19
2019-02-02T13:07:16.165Z,85.96
2019-02-02T13:08:20.533Z,86.10
2019-02-02T13:09:24.929Z,85.31
2019-02-02T13:10:29.210Z,85.39
2019-02-02T13:11:33.366Z,85.43
2019-02-02T13:12:37.706Z,85.25
2019-02-02T13:13:42.705Z,85.32
2019-02-02T13:14:46.462Z,85.75
2019-02-02T13:15:50.592Z,85.94
2019-02-02T13:16:54.868Z,86.04
2019-02-02T13:17:59.116Z,85.35
2019-02-02T13:19:04.108Z,85.32
2019-02-02T13:20:09.463Z,85.53
2019-02-02T13:21:13.852Z,85.89
2019-02-02T13:22:18.191Z,85.72
2019-02-02T13:23:22.592Z,84.94
2019-02-02T13:24:26.940Z,84.48
2019-02-02T13:25:31.266Z,84.62
2019-02-02T13:26:35.314Z,84.92
2019-02-02T13:27:39.366Z,84.59
2019-02-02T13:28:44.065Z,85.19
2019-02-02T13:29:48.415Z,84.92
2019-02-02T13:30:52.656Z,84.46
2019-02-02T13:31:57.240Z,84.68
2019-02-02T13:33:01.612Z,84.42
2019-02-02T13:34:05.936Z,84.89
2019-02-02T13:35:12.271Z,84.61
2019-02-02T13:36:16.394Z,84.18
2019-02-02T13:37:20.593Z,84.22
2019-02-02T13:38:24.740Z,84.91
2019-02-02T13:39:28.796Z,84.77
2019-02-02T13:40:32.916Z,84.41
2019-02-02T13:41:36.870Z,85.00
2019-02-02T13:42:40.860Z,84.51
2019-02-02T13:43:44.899Z,84.82
2019-02-02T13:44:48.931Z,85.16
2019-02-02T13:45:53.022Z,85.11
2019-02-02T13:46:57.090Z,84.90
2019-02-02T13:48:01.341Z,85.25
2019-02-02T13:49:05.433Z,85.59
2019-02-02T13:50:11.975Z,85.61
2019-02-02T13:51:15.972Z,85.99
2019-02-02T13:52:20.067Z,85.54